sensor_id;sensor_type;location;lat;lon;timestamp;P1;durP1;ratioP1;P2;durP2;ratioP2
17141;SDS011;32805;53.556;9.944;2022-12-01T00:01:25;70.85;;;34.95;;
17141;SDS011;32805;53.556;9.944;2022-12-01T00:03:54;68.53;;;35.38;;
17141;SDS011;32805;53.556;9.944;2022-12-01T00:06:22;68.85;;;35.15;;
17141;SDS011;32805;53.556;9.944;2022-12-01T00:08:51;63.53;;;35.42;;
17141;SDS011;32805;53.556;9.944;2022-12-01T00:11:45;66.35;;;35.47;;
17141;SDS011;32805;53.556;9.944;2022-12-01T00:14:13;68.82;;;36.53;;
17141;SDS011;32805;53.556;9.944;2022-12-01T00:16:42;63.33;;;33.78;;
17141;SDS011;32805;53.556;9.944;2022-12-01T00:19:11;63.47;;;34.38;;
17141;SDS011;32805;53.556;9.944;2022-12-01T00:21:42;63.58;;;34.35;;
17141;SDS011;32805;53.556;9.944;2022-12-01T00:24:11;60.22;;;33.25;;
17141;SDS011;32805;53.556;9.944;2022-12-01T00:26:39;65.72;;;35.00;;
17141;SDS011;32805;53.556;9.944;2022-12-01T00:29:07;63.85;;;35.15;;
17141;SDS011;32805;53.556;9.944;2022-12-01T00:31:35;59.25;;;33.28;;
17141;SDS011;32805;53.556;9.944;2022-12-01T00:34:03;61.72;;;35.00;;
17141;SDS011;32805;53.556;9.944;2022-12-01T00:36:38;66.53;;;34.78;;
17141;SDS011;32805;53.556;9.944;2022-12-01T00:39:05;61.90;;;33.13;;
17141;SDS011;32805;53.556;9.944;2022-12-01T00:41:33;59.88;;;31.88;;
17141;SDS011;32805;53.556;9.944;2022-12-01T00:44:01;62.90;;;32.33;;
17141;SDS011;32805;53.556;9.944;2022-12-01T00:46:28;66.72;;;33.60;;
17141;SDS011;32805;53.556;9.944;2022-12-01T00:48:56;62.95;;;32.70;;
17141;SDS011;32805;53.556;9.944;2022-12-01T00:51:24;61.72;;;33.08;;
17141;SDS011;32805;53.556;9.944;2022-12-01T00:53:53;60.00;;;32.72;;
17141;SDS011;32805;53.556;9.944;2022-12-01T00:56:21;60.72;;;32.92;;
17141;SDS011;32805;53.556;9.944;2022-12-01T00:58:49;60.53;;;32.22;;
17141;SDS011;32805;53.556;9.944;2022-12-01T01:01:16;62.15;;;33.17;;
17141;SDS011;32805;53.556;9.944;2022-12-01T01:03:44;66.65;;;34.47;;
17141;SDS011;32805;53.556;9.944;2022-12-01T01:06:12;65.55;;;34.38;;
17141;SDS011;32805;53.556;9.944;2022-12-01T01:08:40;62.03;;;32.60;;
17141;SDS011;32805;53.556;9.944;2022-12-01T01:11:09;64.03;;;34.05;;
17141;SDS011;32805;53.556;9.944;2022-12-01T01:13:37;58.45;;;30.73;;
17141;SDS011;32805;53.556;9.944;2022-12-01T01:16:06;62.03;;;33.67;;
17141;SDS011;32805;53.556;9.944;2022-12-01T01:18:37;64.10;;;32.95;;
17141;SDS011;32805;53.556;9.944;2022-12-01T01:21:06;61.22;;;32.85;;
17141;SDS011;32805;53.556;9.944;2022-12-01T01:23:36;67.05;;;32.72;;
17141;SDS011;32805;53.556;9.944;2022-12-01T01:26:05;65.47;;;33.92;;
17141;SDS011;32805;53.556;9.944;2022-12-01T01:28:35;60.90;;;32.92;;
17141;SDS011;32805;53.556;9.944;2022-12-01T01:31:04;67.35;;;34.50;;
17141;SDS011;32805;53.556;9.944;2022-12-01T01:33:32;63.40;;;34.80;;
17141;SDS011;32805;53.556;9.944;2022-12-01T01:36:00;68.90;;;34.97;;
17141;SDS011;32805;53.556;9.944;2022-12-01T01:38:28;68.72;;;33.88;;
17141;SDS011;32805;53.556;9.944;2022-12-01T01:40:56;58.75;;;35.38;;
17141;SDS011;32805;53.556;9.944;2022-12-01T01:43:39;64.85;;;34.33;;
17141;SDS011;32805;53.556;9.944;2022-12-01T01:46:09;68.85;;;35.08;;
17141;SDS011;32805;53.556;9.944;2022-12-01T01:48:39;69.55;;;33.78;;
17141;SDS011;32805;53.556;9.944;2022-12-01T01:51:09;70.68;;;34.60;;
17141;SDS011;32805;53.556;9.944;2022-12-01T01:53:38;64.55;;;34.30;;
17141;SDS011;32805;53.556;9.944;2022-12-01T01:56:06;67.93;;;34.08;;
17141;SDS011;32805;53.556;9.944;2022-12-01T01:58:35;62.75;;;33.22;;
17141;SDS011;32805;53.556;9.944;2022-12-01T02:01:05;58.47;;;32.80;;
17141;SDS011;32805;53.556;9.944;2022-12-01T02:03:34;69.15;;;32.97;;
17141;SDS011;32805;53.556;9.944;2022-12-01T02:06:03;64.05;;;34.17;;
17141;SDS011;32805;53.556;9.944;2022-12-01T02:08:33;74.43;;;35.55;;
17141;SDS011;32805;53.556;9.944;2022-12-01T02:11:23;65.30;;;32.78;;
17141;SDS011;32805;53.556;9.944;2022-12-01T02:14:20;63.67;;;33.42;;
17141;SDS011;32805;53.556;9.944;2022-12-01T02:16:58;63.58;;;31.30;;
17141;SDS011;32805;53.556;9.944;2022-12-01T02:19:40;66.63;;;32.88;;
17141;SDS011;32805;53.556;9.944;2022-12-01T02:22:21;65.03;;;33.42;;
17141;SDS011;32805;53.556;9.944;2022-12-01T02:25:10;59.10;;;32.63;;
17141;SDS011;32805;53.556;9.944;2022-12-01T02:27:52;61.40;;;32.67;;
17141;SDS011;32805;53.556;9.944;2022-12-01T02:30:35;65.28;;;33.67;;
17141;SDS011;32805;53.556;9.944;2022-12-01T02:33:10;66.18;;;35.03;;
17141;SDS011;32805;53.556;9.944;2022-12-01T02:35:45;60.53;;;32.45;;
17141;SDS011;32805;53.556;9.944;2022-12-01T02:38:18;58.90;;;32.35;;
17141;SDS011;32805;53.556;9.944;2022-12-01T02:40:51;64.13;;;33.53;;
17141;SDS011;32805;53.556;9.944;2022-12-01T02:43:25;58.25;;;32.78;;
17141;SDS011;32805;53.556;9.944;2022-12-01T02:46:01;67.68;;;34.83;;
17141;SDS011;32805;53.556;9.944;2022-12-01T02:48:33;62.55;;;34.13;;
17141;SDS011;32805;53.556;9.944;2022-12-01T02:51:02;68.13;;;32.45;;
17141;SDS011;32805;53.556;9.944;2022-12-01T02:53:33;73.10;;;34.10;;
17141;SDS011;32805;53.556;9.944;2022-12-01T02:56:04;67.10;;;33.97;;
17141;SDS011;32805;53.556;9.944;2022-12-01T02:58:33;70.72;;;35.40;;
17141;SDS011;32805;53.556;9.944;2022-12-01T03:01:05;71.72;;;33.45;;
17141;SDS011;32805;53.556;9.944;2022-12-01T03:03:49;69.55;;;33.33;;
17141;SDS011;32805;53.556;9.944;2022-12-01T03:06:40;64.55;;;33.22;;
17141;SDS011;32805;53.556;9.944;2022-12-01T03:09:16;67.15;;;33.15;;
17141;SDS011;32805;53.556;9.944;2022-12-01T03:11:59;69.00;;;33.03;;
17141;SDS011;32805;53.556;9.944;2022-12-01T03:14:38;69.22;;;32.65;;
17141;SDS011;32805;53.556;9.944;2022-12-01T03:17:14;70.22;;;35.78;;
17141;SDS011;32805;53.556;9.944;2022-12-01T03:19:45;65.95;;;35.38;;
17141;SDS011;32805;53.556;9.944;2022-12-01T03:22:17;69.70;;;33.90;;
17141;SDS011;32805;53.556;9.944;2022-12-01T03:24:51;74.70;;;34.72;;
17141;SDS011;32805;53.556;9.944;2022-12-01T03:27:21;66.55;;;33.42;;
17141;SDS011;32805;53.556;9.944;2022-12-01T03:29:54;68.10;;;34.67;;
17141;SDS011;32805;53.556;9.944;2022-12-01T03:32:26;69.22;;;34.80;;
17141;SDS011;32805;53.556;9.944;2022-12-01T03:34:58;63.58;;;32.00;;
17141;SDS011;32805;53.556;9.944;2022-12-01T03:37:31;70.53;;;34.53;;
17141;SDS011;32805;53.556;9.944;2022-12-01T03:40:04;77.30;;;35.55;;
17141;SDS011;32805;53.556;9.944;2022-12-01T03:42:36;74.05;;;34.40;;
17141;SDS011;32805;53.556;9.944;2022-12-01T03:45:10;69.95;;;33.28;;
17141;SDS011;32805;53.556;9.944;2022-12-01T03:47:43;70.03;;;33.85;;
17141;SDS011;32805;53.556;9.944;2022-12-01T03:50:12;71.00;;;34.88;;
17141;SDS011;32805;53.556;9.944;2022-12-01T03:52:43;72.13;;;34.70;;
17141;SDS011;32805;53.556;9.944;2022-12-01T03:55:17;70.25;;;33.75;;
17141;SDS011;32805;53.556;9.944;2022-12-01T03:57:49;74.82;;;35.58;;
17141;SDS011;32805;53.556;9.944;2022-12-01T04:00:21;64.40;;;33.97;;
17141;SDS011;32805;53.556;9.944;2022-12-01T04:02:54;64.25;;;32.63;;
17141;SDS011;32805;53.556;9.944;2022-12-01T04:05:22;76.82;;;34.47;;
17141;SDS011;32805;53.556;9.944;2022-12-01T04:07:51;79.20;;;34.92;;
17141;SDS011;32805;53.556;9.944;2022-12-01T04:10:19;72.03;;;34.78;;
17141;SDS011;32805;53.556;9.944;2022-12-01T04:12:47;73.55;;;36.67;;
17141;SDS011;32805;53.556;9.944;2022-12-01T04:15:14;77.38;;;34.08;;
17141;SDS011;32805;53.556;9.944;2022-12-01T04:17:42;65.75;;;32.88;;
17141;SDS011;32805;53.556;9.944;2022-12-01T04:20:12;77.60;;;35.83;;
17141;SDS011;32805;53.556;9.944;2022-12-01T04:22:41;76.25;;;37.22;;
17141;SDS011;32805;53.556;9.944;2022-12-01T04:25:09;73.57;;;33.22;;
17141;SDS011;32805;53.556;9.944;2022-12-01T04:27:38;74.78;;;34.50;;
17141;SDS011;32805;53.556;9.944;2022-12-01T04:30:09;71.85;;;33.95;;
17141;SDS011;32805;53.556;9.944;2022-12-01T04:32:37;72.82;;;35.22;;
17141;SDS011;32805;53.556;9.944;2022-12-01T04:35:08;78.20;;;35.45;;
17141;SDS011;32805;53.556;9.944;2022-12-01T04:37:39;76.35;;;34.03;;
17141;SDS011;32805;53.556;9.944;2022-12-01T04:40:07;78.22;;;35.30;;
17141;SDS011;32805;53.556;9.944;2022-12-01T04:42:35;77.78;;;35.47;;
17141;SDS011;32805;53.556;9.944;2022-12-01T04:45:03;74.45;;;34.53;;
17141;SDS011;32805;53.556;9.944;2022-12-01T04:47:34;76.35;;;34.58;;
17141;SDS011;32805;53.556;9.944;2022-12-01T04:50:01;76.03;;;35.58;;
17141;SDS011;32805;53.556;9.944;2022-12-01T04:52:31;76.70;;;34.60;;
17141;SDS011;32805;53.556;9.944;2022-12-01T04:55:05;75.53;;;34.72;;
17141;SDS011;32805;53.556;9.944;2022-12-01T04:57:34;79.00;;;34.95;;
17141;SDS011;32805;53.556;9.944;2022-12-01T05:00:02;73.75;;;33.50;;
17141;SDS011;32805;53.556;9.944;2022-12-01T05:02:38;71.95;;;33.10;;
17141;SDS011;32805;53.556;9.944;2022-12-01T05:05:08;72.22;;;34.13;;
17141;SDS011;32805;53.556;9.944;2022-12-01T05:07:37;73.45;;;34.80;;
17141;SDS011;32805;53.556;9.944;2022-12-01T05:10:07;75.25;;;35.70;;
17141;SDS011;32805;53.556;9.944;2022-12-01T05:12:35;71.70;;;35.20;;
17141;SDS011;32805;53.556;9.944;2022-12-01T05:15:03;73.68;;;34.67;;
17141;SDS011;32805;53.556;9.944;2022-12-01T05:17:32;79.32;;;34.10;;
17141;SDS011;32805;53.556;9.944;2022-12-01T05:20:05;74.75;;;34.78;;
17141;SDS011;32805;53.556;9.944;2022-12-01T05:23:01;74.75;;;34.35;;
17141;SDS011;32805;53.556;9.944;2022-12-01T05:25:33;71.40;;;34.70;;
17141;SDS011;32805;53.556;9.944;2022-12-01T05:28:02;81.13;;;34.70;;
17141;SDS011;32805;53.556;9.944;2022-12-01T05:30:30;71.70;;;34.22;;
17141;SDS011;32805;53.556;9.944;2022-12-01T05:32:58;69.80;;;33.67;;
17141;SDS011;32805;53.556;9.944;2022-12-01T05:35:26;72.28;;;33.40;;
17141;SDS011;32805;53.556;9.944;2022-12-01T05:37:53;69.95;;;34.05;;
17141;SDS011;32805;53.556;9.944;2022-12-01T05:40:21;76.32;;;32.92;;
17141;SDS011;32805;53.556;9.944;2022-12-01T05:42:50;80.70;;;34.78;;
17141;SDS011;32805;53.556;9.944;2022-12-01T05:45:18;73.10;;;34.20;;
17141;SDS011;32805;53.556;9.944;2022-12-01T05:47:46;76.35;;;34.83;;
17141;SDS011;32805;53.556;9.944;2022-12-01T05:50:13;75.88;;;32.55;;
17141;SDS011;32805;53.556;9.944;2022-12-01T05:52:42;73.97;;;34.35;;
17141;SDS011;32805;53.556;9.944;2022-12-01T05:55:10;75.28;;;34.95;;
17141;SDS011;32805;53.556;9.944;2022-12-01T05:57:37;85.80;;;35.53;;
17141;SDS011;32805;53.556;9.944;2022-12-01T06:00:07;74.70;;;34.10;;
17141;SDS011;32805;53.556;9.944;2022-12-01T06:02:39;82.45;;;34.38;;
17141;SDS011;32805;53.556;9.944;2022-12-01T06:05:07;78.43;;;34.17;;
17141;SDS011;32805;53.556;9.944;2022-12-01T06:07:35;75.47;;;33.75;;
17141;SDS011;32805;53.556;9.944;2022-12-01T06:10:06;74.38;;;35.28;;
17141;SDS011;32805;53.556;9.944;2022-12-01T06:12:35;76.05;;;34.22;;
17141;SDS011;32805;53.556;9.944;2022-12-01T06:15:03;72.43;;;35.78;;
17141;SDS011;32805;53.556;9.944;2022-12-01T06:17:35;79.88;;;37.08;;
17141;SDS011;32805;53.556;9.944;2022-12-01T06:20:06;81.40;;;34.33;;
17141;SDS011;32805;53.556;9.944;2022-12-01T06:22:35;82.78;;;35.65;;
17141;SDS011;32805;53.556;9.944;2022-12-01T06:25:03;80.55;;;35.58;;
17141;SDS011;32805;53.556;9.944;2022-12-01T06:27:31;77.05;;;36.25;;
17141;SDS011;32805;53.556;9.944;2022-12-01T06:29:59;74.22;;;34.30;;
17141;SDS011;32805;53.556;9.944;2022-12-01T06:32:26;71.63;;;33.33;;
17141;SDS011;32805;53.556;9.944;2022-12-01T06:34:56;76.50;;;34.17;;
17141;SDS011;32805;53.556;9.944;2022-12-01T06:37:23;73.35;;;33.58;;
17141;SDS011;32805;53.556;9.944;2022-12-01T06:39:52;75.00;;;34.88;;
17141;SDS011;32805;53.556;9.944;2022-12-01T06:42:20;79.30;;;34.33;;
17141;SDS011;32805;53.556;9.944;2022-12-01T06:44:48;79.57;;;36.45;;
17141;SDS011;32805;53.556;9.944;2022-12-01T06:47:15;73.40;;;33.30;;
17141;SDS011;32805;53.556;9.944;2022-12-01T06:49:43;72.40;;;33.28;;
17141;SDS011;32805;53.556;9.944;2022-12-01T06:52:12;75.05;;;33.05;;
17141;SDS011;32805;53.556;9.944;2022-12-01T06:54:40;68.60;;;32.45;;
17141;SDS011;32805;53.556;9.944;2022-12-01T06:57:07;74.88;;;32.60;;
17141;SDS011;32805;53.556;9.944;2022-12-01T06:59:35;71.32;;;33.70;;
17141;SDS011;32805;53.556;9.944;2022-12-01T07:02:03;72.25;;;33.50;;
17141;SDS011;32805;53.556;9.944;2022-12-01T07:04:30;68.57;;;33.80;;
17141;SDS011;32805;53.556;9.944;2022-12-01T07:06:58;69.15;;;33.35;;
17141;SDS011;32805;53.556;9.944;2022-12-01T07:09:27;72.45;;;33.47;;
17141;SDS011;32805;53.556;9.944;2022-12-01T07:11:55;74.90;;;35.65;;
17141;SDS011;32805;53.556;9.944;2022-12-01T07:14:23;71.53;;;34.15;;
17141;SDS011;32805;53.556;9.944;2022-12-01T07:16:52;70.75;;;33.33;;
17141;SDS011;32805;53.556;9.944;2022-12-01T07:19:20;68.72;;;31.48;;
17141;SDS011;32805;53.556;9.944;2022-12-01T07:21:48;71.35;;;32.58;;
17141;SDS011;32805;53.556;9.944;2022-12-01T07:24:16;71.15;;;32.47;;
17141;SDS011;32805;53.556;9.944;2022-12-01T07:26:45;72.72;;;33.88;;
17141;SDS011;32805;53.556;9.944;2022-12-01T07:29:13;68.03;;;32.22;;
17141;SDS011;32805;53.556;9.944;2022-12-01T07:31:41;67.40;;;31.95;;
17141;SDS011;32805;53.556;9.944;2022-12-01T07:34:09;70.45;;;31.88;;
17141;SDS011;32805;53.556;9.944;2022-12-01T07:36:38;73.75;;;33.17;;
17141;SDS011;32805;53.556;9.944;2022-12-01T07:39:06;74.40;;;32.63;;
17141;SDS011;32805;53.556;9.944;2022-12-01T07:41:35;73.38;;;32.63;;
17141;SDS011;32805;53.556;9.944;2022-12-01T07:44:04;71.32;;;32.13;;
17141;SDS011;32805;53.556;9.944;2022-12-01T07:46:31;73.93;;;32.67;;
17141;SDS011;32805;53.556;9.944;2022-12-01T07:48:59;66.65;;;31.70;;
17141;SDS011;32805;53.556;9.944;2022-12-01T07:51:27;65.50;;;31.48;;
17141;SDS011;32805;53.556;9.944;2022-12-01T07:53:54;74.35;;;32.63;;
17141;SDS011;32805;53.556;9.944;2022-12-01T07:56:22;75.75;;;32.47;;
17141;SDS011;32805;53.556;9.944;2022-12-01T07:58:50;72.28;;;32.88;;
17141;SDS011;32805;53.556;9.944;2022-12-01T08:01:19;69.80;;;32.03;;
17141;SDS011;32805;53.556;9.944;2022-12-01T08:03:49;69.22;;;31.38;;
17141;SDS011;32805;53.556;9.944;2022-12-01T08:06:18;85.13;;;34.67;;
17141;SDS011;32805;53.556;9.944;2022-12-01T08:08:46;71.65;;;31.75;;
17141;SDS011;32805;53.556;9.944;2022-12-01T08:11:16;70.85;;;33.40;;
17141;SDS011;32805;53.556;9.944;2022-12-01T08:13:45;79.00;;;32.55;;
17141;SDS011;32805;53.556;9.944;2022-12-01T08:16:14;65.07;;;30.63;;
17141;SDS011;32805;53.556;9.944;2022-12-01T08:18:45;67.40;;;31.05;;
17141;SDS011;32805;53.556;9.944;2022-12-01T08:21:14;70.10;;;30.55;;
17141;SDS011;32805;53.556;9.944;2022-12-01T08:23:43;68.22;;;31.73;;
17141;SDS011;32805;53.556;9.944;2022-12-01T08:26:13;67.50;;;30.67;;
17141;SDS011;32805;53.556;9.944;2022-12-01T08:28:41;61.40;;;28.55;;
17141;SDS011;32805;53.556;9.944;2022-12-01T08:31:13;65.80;;;29.15;;
17141;SDS011;32805;53.556;9.944;2022-12-01T08:33:42;57.00;;;27.45;;
17141;SDS011;32805;53.556;9.944;2022-12-01T08:36:11;57.80;;;29.23;;
17141;SDS011;32805;53.556;9.944;2022-12-01T08:38:41;65.68;;;29.38;;
17141;SDS011;32805;53.556;9.944;2022-12-01T08:41:09;58.08;;;27.92;;
17141;SDS011;32805;53.556;9.944;2022-12-01T08:43:38;59.17;;;29.52;;
17141;SDS011;32805;53.556;9.944;2022-12-01T08:46:23;63.42;;;29.42;;
17141;SDS011;32805;53.556;9.944;2022-12-01T08:48:52;65.00;;;29.92;;
17141;SDS011;32805;53.556;9.944;2022-12-01T08:51:31;64.35;;;28.75;;
17141;SDS011;32805;53.556;9.944;2022-12-01T08:53:59;60.00;;;30.58;;
17141;SDS011;32805;53.556;9.944;2022-12-01T08:56:28;65.38;;;29.42;;
17141;SDS011;32805;53.556;9.944;2022-12-01T08:58:58;61.70;;;27.88;;
17141;SDS011;32805;53.556;9.944;2022-12-01T09:01:26;59.65;;;27.70;;
17141;SDS011;32805;53.556;9.944;2022-12-01T09:03:55;60.63;;;27.27;;
17141;SDS011;32805;53.556;9.944;2022-12-01T09:06:36;58.35;;;26.17;;
17141;SDS011;32805;53.556;9.944;2022-12-01T09:09:05;56.10;;;26.98;;
17141;SDS011;32805;53.556;9.944;2022-12-01T09:11:33;58.88;;;28.70;;
17141;SDS011;32805;53.556;9.944;2022-12-01T09:14:01;60.45;;;27.90;;
17141;SDS011;32805;53.556;9.944;2022-12-01T09:16:29;59.30;;;29.55;;
17141;SDS011;32805;53.556;9.944;2022-12-01T09:18:57;59.85;;;27.45;;
17141;SDS011;32805;53.556;9.944;2022-12-01T09:21:26;62.47;;;28.05;;
17141;SDS011;32805;53.556;9.944;2022-12-01T09:23:58;59.30;;;25.75;;
17141;SDS011;32805;53.556;9.944;2022-12-01T09:26:26;59.28;;;25.52;;
17141;SDS011;32805;53.556;9.944;2022-12-01T09:28:57;58.42;;;26.25;;
17141;SDS011;32805;53.556;9.944;2022-12-01T09:31:27;63.67;;;28.40;;
17141;SDS011;32805;53.556;9.944;2022-12-01T09:33:57;51.28;;;24.35;;
17141;SDS011;32805;53.556;9.944;2022-12-01T09:36:26;49.97;;;25.23;;
17141;SDS011;32805;53.556;9.944;2022-12-01T09:38:55;49.33;;;23.73;;
17141;SDS011;32805;53.556;9.944;2022-12-01T09:41:25;48.28;;;24.27;;
17141;SDS011;32805;53.556;9.944;2022-12-01T09:43:57;51.42;;;23.77;;
17141;SDS011;32805;53.556;9.944;2022-12-01T09:46:32;48.83;;;23.95;;
17141;SDS011;32805;53.556;9.944;2022-12-01T09:49:03;53.45;;;25.08;;
17141;SDS011;32805;53.556;9.944;2022-12-01T09:51:35;52.22;;;24.70;;
17141;SDS011;32805;53.556;9.944;2022-12-01T09:54:03;53.53;;;24.63;;
17141;SDS011;32805;53.556;9.944;2022-12-01T09:56:35;49.25;;;23.58;;
17141;SDS011;32805;53.556;9.944;2022-12-01T09:59:09;55.55;;;25.20;;
17141;SDS011;32805;53.556;9.944;2022-12-01T10:01:45;57.72;;;24.85;;
17141;SDS011;32805;53.556;9.944;2022-12-01T10:04:15;54.30;;;25.17;;
17141;SDS011;32805;53.556;9.944;2022-12-01T10:06:47;56.67;;;25.77;;
17141;SDS011;32805;53.556;9.944;2022-12-01T10:09:21;57.85;;;26.13;;
17141;SDS011;32805;53.556;9.944;2022-12-01T10:11:54;58.45;;;26.80;;
17141;SDS011;32805;53.556;9.944;2022-12-01T10:14:28;51.83;;;24.38;;
17141;SDS011;32805;53.556;9.944;2022-12-01T10:17:01;54.42;;;25.67;;
17141;SDS011;32805;53.556;9.944;2022-12-01T10:19:37;48.85;;;23.08;;
17141;SDS011;32805;53.556;9.944;2022-12-01T10:22:14;49.50;;;23.52;;
17141;SDS011;32805;53.556;9.944;2022-12-01T10:24:53;49.55;;;22.67;;
17141;SDS011;32805;53.556;9.944;2022-12-01T10:27:30;53.47;;;23.67;;
17141;SDS011;32805;53.556;9.944;2022-12-01T10:30:07;58.72;;;24.08;;
17141;SDS011;32805;53.556;9.944;2022-12-01T10:32:43;54.50;;;24.27;;
17141;SDS011;32805;53.556;9.944;2022-12-01T10:35:17;57.15;;;25.92;;
17141;SDS011;32805;53.556;9.944;2022-12-01T10:37:49;61.10;;;25.77;;
17141;SDS011;32805;53.556;9.944;2022-12-01T10:40:20;55.97;;;24.55;;
17141;SDS011;32805;53.556;9.944;2022-12-01T10:42:50;53.90;;;23.58;;
17141;SDS011;32805;53.556;9.944;2022-12-01T10:45:19;55.30;;;24.98;;
17141;SDS011;32805;53.556;9.944;2022-12-01T10:48:12;61.20;;;27.52;;
17141;SDS011;32805;53.556;9.944;2022-12-01T10:50:42;56.63;;;23.98;;
17141;SDS011;32805;53.556;9.944;2022-12-01T10:53:25;62.28;;;26.42;;
17141;SDS011;32805;53.556;9.944;2022-12-01T10:55:59;66.13;;;28.02;;
17141;SDS011;32805;53.556;9.944;2022-12-01T10:58:32;58.72;;;26.35;;
17141;SDS011;32805;53.556;9.944;2022-12-01T11:01:13;67.80;;;28.25;;
17141;SDS011;32805;53.556;9.944;2022-12-01T11:03:43;58.05;;;27.05;;
17141;SDS011;32805;53.556;9.944;2022-12-01T11:06:20;60.35;;;26.25;;
17141;SDS011;32805;53.556;9.944;2022-12-01T11:08:50;57.00;;;24.98;;
17141;SDS011;32805;53.556;9.944;2022-12-01T11:11:27;58.88;;;23.85;;
17141;SDS011;32805;53.556;9.944;2022-12-01T11:13:59;55.28;;;23.48;;
17141;SDS011;32805;53.556;9.944;2022-12-01T11:16:36;52.83;;;23.60;;
17141;SDS011;32805;53.556;9.944;2022-12-01T11:19:16;48.42;;;21.48;;
17141;SDS011;32805;53.556;9.944;2022-12-01T11:21:53;50.25;;;21.27;;
17141;SDS011;32805;53.556;9.944;2022-12-01T11:24:29;50.15;;;20.98;;
17141;SDS011;32805;53.556;9.944;2022-12-01T11:27:10;49.25;;;20.52;;
17141;SDS011;32805;53.556;9.944;2022-12-01T11:29:45;46.05;;;19.48;;
17141;SDS011;32805;53.556;9.944;2022-12-01T11:32:16;41.25;;;19.70;;
17141;SDS011;32805;53.556;9.944;2022-12-01T11:34:47;43.58;;;20.23;;
17141;SDS011;32805;53.556;9.944;2022-12-01T11:37:18;46.67;;;19.35;;
17141;SDS011;32805;53.556;9.944;2022-12-01T11:39:47;49.95;;;19.83;;
17141;SDS011;32805;53.556;9.944;2022-12-01T11:42:24;59.10;;;23.10;;
17141;SDS011;32805;53.556;9.944;2022-12-01T11:45:21;48.78;;;20.92;;
17141;SDS011;32805;53.556;9.944;2022-12-01T11:47:56;53.00;;;21.52;;
17141;SDS011;32805;53.556;9.944;2022-12-01T11:50:27;48.13;;;20.73;;
17141;SDS011;32805;53.556;9.944;2022-12-01T11:52:55;48.80;;;19.48;;
17141;SDS011;32805;53.556;9.944;2022-12-01T11:55:24;57.45;;;21.83;;
17141;SDS011;32805;53.556;9.944;2022-12-01T11:57:54;47.90;;;20.73;;
17141;SDS011;32805;53.556;9.944;2022-12-01T12:00:28;53.40;;;21.52;;
17141;SDS011;32805;53.556;9.944;2022-12-01T12:03:07;52.22;;;20.23;;
17141;SDS011;32805;53.556;9.944;2022-12-01T12:05:52;53.35;;;21.13;;
17141;SDS011;32805;53.556;9.944;2022-12-01T12:08:56;50.53;;;20.80;;
17141;SDS011;32805;53.556;9.944;2022-12-01T12:11:33;48.70;;;21.00;;
17141;SDS011;32805;53.556;9.944;2022-12-01T12:14:12;52.60;;;21.05;;
17141;SDS011;32805;53.556;9.944;2022-12-01T12:20:00;46.00;;;21.42;;
17141;SDS011;32805;53.556;9.944;2022-12-01T12:22:49;44.53;;;18.48;;
17141;SDS011;32805;53.556;9.944;2022-12-01T12:25:26;47.15;;;19.67;;
17141;SDS011;32805;53.556;9.944;2022-12-01T12:28:03;44.22;;;18.88;;
17141;SDS011;32805;53.556;9.944;2022-12-01T12:30:43;42.78;;;18.55;;
17141;SDS011;32805;53.556;9.944;2022-12-01T12:33:28;44.20;;;17.67;;
17141;SDS011;32805;53.556;9.944;2022-12-01T12:36:15;48.50;;;18.73;;
17141;SDS011;32805;53.556;9.944;2022-12-01T12:38:57;42.53;;;18.35;;
17141;SDS011;32805;53.556;9.944;2022-12-01T12:41:38;47.42;;;18.02;;
17141;SDS011;32805;53.556;9.944;2022-12-01T12:44:25;55.58;;;18.98;;
17141;SDS011;32805;53.556;9.944;2022-12-01T12:47:15;44.85;;;16.92;;
17141;SDS011;32805;53.556;9.944;2022-12-01T12:49:56;46.08;;;18.50;;
17141;SDS011;32805;53.556;9.944;2022-12-01T12:52:33;43.20;;;16.52;;
17141;SDS011;32805;53.556;9.944;2022-12-01T12:55:10;38.58;;;16.17;;
17141;SDS011;32805;53.556;9.944;2022-12-01T12:57:42;40.28;;;17.20;;
17141;SDS011;32805;53.556;9.944;2022-12-01T13:00:14;38.33;;;17.45;;
17141;SDS011;32805;53.556;9.944;2022-12-01T13:02:46;47.97;;;19.70;;
17141;SDS011;32805;53.556;9.944;2022-12-01T13:05:19;43.67;;;17.55;;
17141;SDS011;32805;53.556;9.944;2022-12-01T13:07:52;42.78;;;17.42;;
17141;SDS011;32805;53.556;9.944;2022-12-01T13:10:24;36.72;;;16.13;;
17141;SDS011;32805;53.556;9.944;2022-12-01T13:12:59;35.33;;;16.20;;
17141;SDS011;32805;53.556;9.944;2022-12-01T13:15:33;45.72;;;18.00;;
17141;SDS011;32805;53.556;9.944;2022-12-01T13:18:03;37.65;;;15.73;;
17141;SDS011;32805;53.556;9.944;2022-12-01T13:20:40;42.75;;;17.25;;
17141;SDS011;32805;53.556;9.944;2022-12-01T13:23:10;40.03;;;17.42;;
17141;SDS011;32805;53.556;9.944;2022-12-01T13:25:41;43.53;;;18.13;;
17141;SDS011;32805;53.556;9.944;2022-12-01T13:28:12;41.97;;;17.58;;
17141;SDS011;32805;53.556;9.944;2022-12-01T13:30:55;41.00;;;17.50;;
17141;SDS011;32805;53.556;9.944;2022-12-01T13:33:25;46.55;;;17.75;;
17141;SDS011;32805;53.556;9.944;2022-12-01T13:35:54;43.83;;;17.60;;
17141;SDS011;32805;53.556;9.944;2022-12-01T13:38:43;40.28;;;16.77;;
17141;SDS011;32805;53.556;9.944;2022-12-01T13:41:23;46.72;;;16.80;;
17141;SDS011;32805;53.556;9.944;2022-12-01T13:43:58;49.72;;;17.75;;
17141;SDS011;32805;53.556;9.944;2022-12-01T13:46:30;46.38;;;16.55;;
17141;SDS011;32805;53.556;9.944;2022-12-01T13:48:59;43.35;;;16.38;;
17141;SDS011;32805;53.556;9.944;2022-12-01T13:54:32;42.08;;;16.00;;
17141;SDS011;32805;53.556;9.944;2022-12-01T13:57:02;35.53;;;14.07;;
17141;SDS011;32805;53.556;9.944;2022-12-01T13:59:39;40.35;;;15.68;;
17141;SDS011;32805;53.556;9.944;2022-12-01T14:02:37;34.35;;;12.73;;
17141;SDS011;32805;53.556;9.944;2022-12-01T14:08:12;34.92;;;13.40;;
17141;SDS011;32805;53.556;9.944;2022-12-01T14:10:53;33.78;;;13.13;;
17141;SDS011;32805;53.556;9.944;2022-12-01T14:13:23;33.38;;;12.95;;
17141;SDS011;32805;53.556;9.944;2022-12-01T14:15:52;31.58;;;12.50;;
17141;SDS011;32805;53.556;9.944;2022-12-01T14:18:25;37.05;;;12.55;;
17141;SDS011;32805;53.556;9.944;2022-12-01T14:20:58;31.75;;;12.48;;
17141;SDS011;32805;53.556;9.944;2022-12-01T14:23:28;31.67;;;12.38;;
17141;SDS011;32805;53.556;9.944;2022-12-01T14:26:13;30.67;;;12.57;;
17141;SDS011;32805;53.556;9.944;2022-12-01T14:34:51;31.45;;;12.20;;
17141;SDS011;32805;53.556;9.944;2022-12-01T14:37:27;26.25;;;11.90;;
17141;SDS011;32805;53.556;9.944;2022-12-01T14:40:03;38.75;;;11.82;;
17141;SDS011;32805;53.556;9.944;2022-12-01T14:42:35;31.25;;;11.57;;
17141;SDS011;32805;53.556;9.944;2022-12-01T14:45:23;28.92;;;10.70;;
17141;SDS011;32805;53.556;9.944;2022-12-01T14:47:56;32.78;;;11.65;;
17141;SDS011;32805;53.556;9.944;2022-12-01T14:50:30;32.28;;;12.38;;
17141;SDS011;32805;53.556;9.944;2022-12-01T14:53:06;33.63;;;11.48;;
17141;SDS011;32805;53.556;9.944;2022-12-01T14:55:42;34.65;;;13.07;;
17141;SDS011;32805;53.556;9.944;2022-12-01T14:58:17;33.17;;;12.48;;
17141;SDS011;32805;53.556;9.944;2022-12-01T15:00:52;29.48;;;11.80;;
17141;SDS011;32805;53.556;9.944;2022-12-01T15:03:27;30.42;;;12.02;;
17141;SDS011;32805;53.556;9.944;2022-12-01T15:05:59;32.40;;;12.32;;